Time;durP1;ratioP1;P1;durP2;ratioP2;P2;SDS_P1;SDS_P2;PMS_P1;PMS_P2;Temp;Humidity;BMP_temperature;BMP_pressure;BME280_temperature;BME280_humidity;BME280_pressure;Samples;Min_cycle;Max_cycle;Signal;HPM_P1;HPM_P2
2022/04/19 00:01:11;;;;;;;3.00;2.80;;;10.60;35.00;;;;;;20647;6771;117975;-71
2022/04/19 00:03:47;;;;;;;3.00;2.80;;;10.50;35.20;;;;;;20610;6756;336188;-71
2022/04/19 00:06:23;;;;;;;3.07;2.87;;;10.70;35.80;;;;;;20737;6786;117699;-72
2022/04/19 00:08:59;;;;;;;2.73;2.53;;;10.70;35.30;;;;;;20807;6756;117591;-72
2022/04/19 00:11:34;;;;;;;2.90;2.70;;;10.60;35.40;;;;;;20465;6760;282475;-71
2022/04/19 00:14:15;;;;;;;2.80;2.60;;;10.80;35.60;;;;;;20778;6771;117340;-71
2022/04/19 00:16:46;;;;;;;2.33;2.23;;;10.80;35.30;;;;;;20788;6769;117875;-72
2022/04/19 00:19:21;;;;;;;3.08;2.87;;;10.80;35.50;;;;;;20548;6771;278066;-71
2022/04/19 00:21:57;;;;;;;2.70;2.57;;;10.80;35.50;;;;;;20402;6771;309700;-72
2022/04/19 00:24:32;;;;;;;2.67;2.47;;;11.20;35.20;;;;;;20773;6771;121536;-71
2022/04/19 00:27:09;;;;;;;2.87;2.67;;;11.10;34.90;;;;;;20551;6771;317444;-71
2022/04/19 00:29:47;;;;;;;3.20;2.43;;;11.10;34.80;;;;;;20772;6771;117822;-71
2022/04/19 00:32:20;;;;;;;2.63;2.53;;;10.90;34.70;;;;;;20779;6771;117347;-71
2022/04/19 00:34:57;;;;;;;2.43;2.33;;;10.70;35.10;;;;;;20721;6784;118176;-71
2022/04/19 00:37:33;;;;;;;2.65;2.55;;;10.60;36.50;;;;;;20494;6799;307801;-71
2022/04/19 00:40:07;;;;;;;3.43;2.67;;;10.60;36.50;;;;;;20500;6784;317128;-72
2022/04/19 00:42:43;;;;;;;2.63;2.50;;;11.00;35.80;;;;;;20530;6784;306988;-71
2022/04/19 00:45:18;;;;;;;2.50;2.40;;;11.30;35.50;;;;;;20723;6784;117080;-72
2022/04/19 00:47:54;;;;;;;2.13;2.03;;;11.10;35.70;;;;;;20762;6775;117496;-72
2022/04/19 00:50:31;;;;;;;2.40;2.30;;;10.80;35.70;;;;;;20759;6760;117153;-71
2022/04/19 00:53:05;;;;;;;2.70;2.60;;;10.50;35.90;;;;;;20613;6754;290314;-72
2022/04/19 00:55:42;;;;;;;2.80;2.60;;;10.90;35.10;;;;;;20579;6769;275585;-72
2022/04/19 00:58:17;;;;;;;2.90;2.70;;;10.90;35.10;;;;;;20520;6784;311478;-72
2022/04/19 01:00:53;;;;;;;2.47;2.37;;;11.20;34.80;;;;;;20676;6769;117586;-72
2022/04/19 01:03:28;;;;;;;2.30;2.20;;;10.90;34.90;;;;;;20832;6754;117222;-71
2022/04/19 01:06:04;;;;;;;2.90;2.70;;;10.50;35.40;;;;;;20572;6769;306307;-71
2022/04/19 01:08:39;;;;;;;2.70;2.50;;;10.70;36.10;;;;;;20788;6769;117113;-72
2022/04/19 01:14:13;;;;;;;2.60;2.50;;;10.30;36.00;;;;;;20565;6769;341139;-71
2022/04/19 01:16:46;;;;;;;2.97;2.67;;;10.50;36.50;;;;;;20832;6754;121885;-71
2022/04/19 01:19:22;;;;;;;2.87;2.67;;;10.40;36.30;;;;;;20620;6754;306147;-72
2022/04/19 01:21:58;;;;;;;2.80;2.70;;;10.90;36.20;;;;;;20417;6754;280405;-71
2022/04/19 01:24:34;;;;;;;4.33;2.50;;;10.90;36.10;;;;;;20788;6769;117107;-71
2022/04/19 01:27:09;;;;;;;2.30;2.20;;;10.70;35.90;;;;;;20772;6769;117111;-72
2022/04/19 01:29:45;;;;;;;2.10;2.00;;;10.40;36.30;;;;;;20722;6784;117159;-71
2022/04/19 01:32:21;;;;;;;3.00;2.80;;;10.30;36.60;;;;;;20551;6777;307577;-71
2022/04/19 01:35:16;;;;;;;2.60;2.50;;;10.30;36.60;;;;;;20741;6777;117542;-71
2022/04/19 01:37:52;;;;;;;2.63;2.33;;;9.90;37.50;;;;;;20756;6777;117524;-72
2022/04/19 01:40:28;;;;;;;2.30;2.20;;;9.90;37.50;;;;;;20686;6777;116885;-72
2022/04/19 01:43:04;;;;;;;2.67;2.50;;;9.70;38.00;;;;;;20555;6769;277372;-72
2022/04/19 01:45:41;;;;;;;2.67;2.50;;;10.30;37.10;;;;;;20585;6764;311136;-72
2022/04/19 01:48:16;;;;;;;2.60;2.50;;;10.30;37.10;;;;;;20705;6794;117157;-72
2022/04/19 01:50:51;;;;;;;2.47;2.27;;;10.20;36.80;;;;;;20671;6779;117898;-72
2022/04/19 01:53:27;;;;;;;2.85;2.55;;;9.90;37.80;;;;;;20541;6779;281655;-72
2022/04/19 01:56:02;;;;;;;2.63;2.43;;;10.00;37.00;;;;;;20703;6794;120812;-72
2022/04/19 01:58:38;;;;;;;2.10;2.00;;;9.90;37.90;;;;;;20799;6764;117130;-72
2022/04/19 02:01:14;;;;;;;2.78;2.67;;;9.80;39.00;;;;;;20438;6769;338341;-72
2022/04/19 02:03:50;;;;;;;2.73;2.53;;;9.80;38.50;;;;;;20569;6771;296537;-72
2022/04/19 02:06:26;;;;;;;2.60;2.40;;;10.10;37.00;;;;;;20731;6785;117027;-72
2022/04/19 02:09:03;;;;;;;2.40;2.30;;;10.00;36.90;;;;;;20816;6756;117477;-72
2022/04/19 02:11:38;;;;;;;2.57;2.47;;;9.70;38.70;;;;;;20438;6770;309556;-72
2022/04/19 02:14:13;;;;;;;3.07;2.87;;;9.70;38.70;;;;;;20566;6771;307684;-72
2022/04/19 02:16:52;;;;;;;2.60;2.40;;;10.10;37.20;;;;;;20808;6771;117470;-72
2022/04/19 02:19:24;;;;;;;3.80;2.57;;;9.90;38.00;;;;;;20779;6771;117688;-72
2022/04/19 02:22:00;;;;;;;2.47;2.37;;;9.50;38.30;;;;;;20606;6771;117364;-72
2022/04/19 02:24:35;;;;;;;2.80;2.60;;;9.30;38.80;;;;;;20519;6786;307791;-72
2022/04/19 02:27:12;;;;;;;2.67;2.58;;;9.40;39.20;;;;;;20546;6771;277687;-72
2022/04/19 02:29:46;;;;;;;3.67;3.37;;;9.80;39.30;;;;;;20745;6779;117478;-72
2022/04/19 02:32:23;;;;;;;3.43;2.83;;;9.70;39.00;;;;;;20797;6764;116905;-72
2022/04/19 02:34:57;;;;;;;3.00;2.90;;;9.40;39.20;;;;;;20735;6779;118138;-72
2022/04/19 02:37:33;;;;;;;3.00;2.80;;;9.20;39.60;;;;;;20799;6779;116932;-72
2022/04/19 02:40:09;;;;;;;3.00;2.80;;;9.00;39.90;;;;;;20556;6779;337715;-71
2022/04/19 02:42:45;;;;;;;2.87;2.77;;;9.20;40.20;;;;;;20825;6754;120938;-72
2022/04/19 02:45:22;;;;;;;3.62;3.33;;;9.20;40.20;;;;;;20527;6779;311242;-72
2022/04/19 02:48:04;;;;;;;3.50;3.30;;;9.30;40.50;;;;;;20545;6779;277595;-72
2022/04/19 02:50:41;;;;;;;3.30;3.10;;;9.50;39.80;;;;;;20643;6786;117982;-72
2022/04/19 02:53:16;;;;;;;3.70;3.40;;;9.50;39.80;;;;;;20531;6779;306732;-72
2022/04/19 02:55:52;;;;;;;3.60;3.30;;;9.50;39.90;;;;;;20752;6781;117018;-71
2022/04/19 02:58:27;;;;;;;3.60;3.30;;;9.40;39.80;;;;;;20794;6766;117529;-71
2022/04/19 03:01:03;;;;;;;4.20;3.07;;;9.10;40.10;;;;;;20681;6779;117289;-71
2022/04/19 03:03:38;;;;;;;3.78;3.47;;;8.90;40.50;;;;;;20564;6771;340657;-71
2022/04/19 03:06:14;;;;;;;3.50;3.20;;;9.10;41.20;;;;;;20768;6772;117069;-71
2022/04/19 03:08:50;;;;;;;3.75;3.55;;;9.00;40.70;;;;;;20526;6779;306945;-71
2022/04/19 03:11:25;;;;;;;3.90;3.70;;;9.20;40.70;;;;;;20421;6766;309144;-71
2022/04/19 03:14:01;;;;;;;3.70;3.50;;;9.50;40.40;;;;;;20796;6764;116933;-71
2022/04/19 03:16:36;;;;;;;3.47;3.27;;;9.30;40.20;;;;;;20787;6768;117661;-71
2022/04/19 03:19:13;;;;;;;3.60;3.40;;;9.00;40.50;;;;;;20724;6784;117966;-71
2022/04/19 03:21:48;;;;;;;3.83;3.63;;;8.90;41.30;;;;;;20330;6794;313955;-70
2022/04/19 03:30:15;;;;;;;3.80;3.60;;;8.80;42.00;;;;;;20544;6764;320412;-71
2022/04/19 03:32:53;;;;;;;3.80;3.60;;;8.80;41.30;;;;;;20738;6779;117093;-72
2022/04/19 03:35:27;;;;;;;3.60;3.40;;;8.80;41.10;;;;;;20729;6784;118308;-72
2022/04/19 03:38:05;;;;;;;4.43;3.70;;;8.60;41.50;;;;;;20751;6779;117091;-72
2022/04/19 03:40:41;;;;;;;3.70;3.50;;;8.40;41.80;;;;;;20520;6766;278703;-72
2022/04/19 03:43:17;;;;;;;3.90;3.70;;;8.70;42.50;;;;;;20529;6779;279052;-72
2022/04/19 03:45:52;;;;;;;4.00;3.62;;;9.10;41.10;;;;;;20575;6769;306992;-71
2022/04/19 03:48:28;;;;;;;3.70;3.50;;;9.60;40.70;;;;;;20568;6769;281887;-71
2022/04/19 03:51:04;;;;;;;3.93;3.63;;;9.60;40.00;;;;;;20663;6766;118208;-72
2022/04/19 03:53:40;;;;;;;3.60;3.40;;;9.40;40.00;;;;;;20691;6799;117213;-72
2022/04/19 03:56:15;;;;;;;3.50;3.30;;;9.10;40.60;;;;;;20745;6781;117428;-71
2022/04/19 03:58:51;;;;;;;3.97;3.57;;;8.80;40.90;;;;;;20743;6775;117976;-72
2022/04/19 04:01:27;;;;;;;3.73;3.33;;;8.70;41.30;;;;;;20603;6784;117958;-71
2022/04/19 04:04:02;;;;;;;3.42;3.22;;;8.60;41.50;;;;;;20516;6784;336436;-71
2022/04/19 04:06:37;;;;;;;3.97;3.78;;;8.80;41.50;;;;;;20570;6769;277322;-72
2022/04/19 04:09:13;;;;;;;3.50;3.30;;;9.30;41.00;;;;;;20556;6769;312655;-72
2022/04/19 04:11:49;;;;;;;3.30;3.10;;;9.70;39.90;;;;;;20570;6784;117479;-71
2022/04/19 04:14:24;;;;;;;3.70;3.50;;;9.50;39.90;;;;;;20803;6760;120785;-71
2022/04/19 04:17:00;;;;;;;3.67;3.37;;;9.20;40.20;;;;;;20748;6775;117090;-71
2022/04/19 04:19:35;;;;;;;3.50;3.30;;;8.90;40.60;;;;;;20731;6784;116992;-71
2022/04/19 04:22:11;;;;;;;3.60;3.30;;;8.70;41.10;;;;;;20756;6779;117117;-71
2022/04/19 04:24:46;;;;;;;3.80;3.60;;;8.50;41.20;;;;;;20627;6751;276690;-71
2022/04/19 04:27:22;;;;;;;4.20;3.80;;;8.80;41.50;;;;;;20743;6784;117653;-71
2022/04/19 04:29:58;;;;;;;3.83;3.43;;;8.80;41.20;;;;;;20685;6793;117556;-71
2022/04/19 04:32:34;;;;;;;4.00;3.70;;;8.80;41.90;;;;;;20529;6779;306757;-71
2022/04/19 04:35:10;;;;;;;3.53;3.33;;;8.80;41.30;;;;;;20783;6766;117273;-71
2022/04/19 04:37:45;;;;;;;4.20;3.80;;;8.80;41.10;;;;;;20721;6784;117478;-71
2022/04/19 04:40:21;;;;;;;3.60;3.30;;;8.60;41.30;;;;;;20670;6794;117039;-71
2022/04/19 04:43:00;;;;;;;4.07;3.77;;;8.60;42.10;;;;;;20473;6794;283829;-71
2022/04/19 04:45:32;;;;;;;3.92;3.72;;;8.70;42.20;;;;;;20506;6781;313498;-71
2022/04/19 04:51:03;;;;;;;3.67;3.47;;;9.10;41.50;;;;;;20364;6794;285738;-72
2022/04/19 04:53:39;;;;;;;3.47;3.30;;;9.30;41.20;;;;;;20779;6769;116876;-72
2022/04/19 04:56:15;;;;;;;3.87;3.67;;;9.20;41.00;;;;;;20573;6769;277699;-72
2022/04/19 04:58:50;;;;;;;3.67;3.37;;;9.40;41.20;;;;;;20713;6784;116989;-71
2022/04/19 05:01:26;;;;;;;3.83;3.00;;;9.40;41.00;;;;;;20596;6784;117941;-71
2022/04/19 05:04:01;;;;;;;3.50;3.23;;;9.10;41.10;;;;;;20735;6784;117011;-72
2022/04/19 05:06:37;;;;;;;4.40;4.03;;;8.90;41.40;;;;;;20574;6769;281095;-72
2022/04/19 05:09:13;;;;;;;4.53;4.23;;;9.60;40.40;;;;;;20550;6769;336479;-71
2022/04/19 05:11:56;;;;;;;3.80;3.53;;;9.60;40.40;;;;;;20684;6769;117110;-72
2022/04/19 05:14:32;;;;;;;3.77;3.47;;;9.30;40.50;;;;;;20833;6754;117396;-72
2022/04/19 05:17:07;;;;;;;4.35;3.97;;;9.30;40.50;;;;;;20538;6769;322139;-72
2022/04/19 05:19:43;;;;;;;3.97;3.70;;;9.40;40.50;;;;;;20786;6769;116885;-71
2022/04/19 05:22:19;;;;;;;4.07;3.87;;;9.30;40.60;;;;;;20574;6769;336900;-72
2022/04/19 05:24:54;;;;;;;4.10;3.67;;;9.40;41.30;;;;;;20817;6769;133466;-71
2022/04/19 05:27:30;;;;;;;4.00;3.70;;;9.30;41.10;;;;;;20787;6769;117121;-72
2022/04/19 05:30:06;;;;;;;3.67;3.47;;;9.10;41.40;;;;;;20801;6754;116832;-72
2022/04/19 05:32:41;;;;;;;3.53;3.33;;;8.90;41.70;;;;;;20775;6773;117783;-72
2022/04/19 05:35:17;;;;;;;4.40;4.10;;;8.70;41.90;;;;;;20605;6754;335401;-72
2022/04/19 05:37:53;;;;;;;3.90;3.70;;;8.90;42.20;;;;;;20775;6769;117673;-72
2022/04/19 05:40:28;;;;;;;3.95;3.65;;;9.00;42.00;;;;;;20511;6769;338191;-72
2022/04/19 05:43:04;;;;;;;3.90;3.70;;;9.20;41.80;;;;;;20606;6754;315815;-72
2022/04/19 05:45:39;;;;;;;3.83;3.63;;;9.50;41.10;;;;;;20788;6769;121366;-71
2022/04/19 05:48:15;;;;;;;3.90;3.70;;;9.50;41.00;;;;;;20792;6769;120647;-71
2022/04/19 05:50:50;;;;;;;3.73;3.47;;;9.30;41.50;;;;;;20684;6769;120739;-71
2022/04/19 05:53:26;;;;;;;3.63;3.33;;;9.10;41.80;;;;;;20773;6776;117147;-71
2022/04/19 05:56:01;;;;;;;3.78;3.58;;;9.00;42.10;;;;;;20513;6787;336839;-71
2022/04/19 05:58:37;;;;;;;3.30;3.10;;;9.30;42.60;;;;;;20741;6784;116822;-71
2022/04/19 06:01:13;;;;;;;3.67;3.47;;;9.40;42.20;;;;;;20447;6769;338593;-72
2022/04/19 06:06:44;;;;;;;3.78;3.50;;;9.60;41.50;;;;;;20599;6764;277126;-71
2022/04/19 06:09:20;;;;;;;3.90;3.70;;;9.90;41.30;;;;;;20772;6766;116743;-71
2022/04/19 06:11:56;;;;;;;4.20;3.90;;;10.20;40.60;;;;;;20428;6766;308901;-71
2022/04/19 06:14:32;;;;;;;3.83;3.53;;;10.10;40.50;;;;;;20636;6751;304604;-71
2022/04/19 06:17:07;;;;;;;3.57;3.37;;;10.60;40.00;;;;;;20815;6756;117021;-72
2022/04/19 06:19:43;;;;;;;3.73;3.50;;;10.50;39.70;;;;;;20783;6771;117056;-71
2022/04/19 06:22:19;;;;;;;4.05;3.70;;;10.40;39.90;;;;;;20591;6766;311090;-71
2022/04/19 06:24:55;;;;;;;4.03;3.83;;;10.40;39.90;;;;;;20776;6769;117687;-72
2022/04/19 06:27:30;;;;;;;4.57;3.97;;;10.50;39.80;;;;;;20632;6751;306287;-71
2022/04/19 06:30:07;;;;;;;4.13;3.83;;;10.70;39.90;;;;;;20762;6766;117150;-72
2022/04/19 06:32:42;;;;;;;4.03;3.83;;;10.70;39.90;;;;;;20801;6766;117593;-71
2022/04/19 06:35:18;;;;;;;3.90;3.60;;;10.80;40.20;;;;;;20789;6766;123137;-71
2022/04/19 06:37:54;;;;;;;4.30;4.00;;;10.80;40.30;;;;;;20579;6766;306206;-71
2022/04/19 06:40:30;;;;;;;4.25;3.90;;;11.20;39.60;;;;;;20526;6766;321740;-71
2022/04/19 06:43:05;;;;;;;4.57;3.75;;;11.70;39.00;;;;;;20524;6781;307342;-71
2022/04/19 06:45:41;;;;;;;4.43;3.67;;;12.10;38.40;;;;;;20538;6781;307150;-71
2022/04/19 06:48:17;;;;;;;3.93;3.53;;;12.80;37.90;;;;;;20592;6766;277706;-71
2022/04/19 06:50:52;;;;;;;4.47;3.50;;;12.80;37.90;;;;;;20702;6764;128081;-72
2022/04/19 06:53:30;;;;;;;4.73;3.60;;;12.80;37.80;;;;;;20852;6751;116625;-71
2022/04/19 06:56:04;;;;;;;3.57;3.37;;;12.60;38.10;;;;;;20735;6786;117247;-71
2022/04/19 06:58:39;;;;;;;3.90;3.60;;;12.50;38.20;;;;;;20534;6783;323155;-71
2022/04/19 07:01:15;;;;;;;3.50;3.30;;;12.70;36.80;;;;;;20608;6786;123784;-71
2022/04/19 07:03:50;;;;;;;4.25;3.95;;;12.70;36.90;;;;;;20549;6779;336789;-71
2022/04/19 07:06:26;;;;;;;3.75;3.55;;;12.90;36.80;;;;;;20625;6757;310351;-71
2022/04/19 07:09:01;;;;;;;3.80;3.60;;;13.30;36.00;;;;;;20519;6784;277658;-71
2022/04/19 07:11:37;;;;;;;3.60;3.40;;;13.60;35.80;;;;;;20564;6794;117739;-71
2022/04/19 07:14:13;;;;;;;4.07;3.85;;;13.60;35.90;;;;;;20593;6764;310322;-71
2022/04/19 07:16:48;;;;;;;4.23;3.93;;;13.70;35.10;;;;;;20582;6764;296584;-73
2022/04/19 07:19:24;;;;;;;5.50;3.60;;;14.00;34.60;;;;;;20794;6769;118209;-71
2022/04/19 07:27:50;;;;;;;3.60;3.40;;;14.10;35.20;;;;;;20738;6781;117775;-71
2022/04/19 07:30:31;;;;;;;3.60;3.30;;;14.10;35.60;;;;;;20745;6766;116919;-71
2022/04/19 07:33:02;;;;;;;3.70;3.37;;;14.20;35.70;;;;;;20786;6766;147516;-71
2022/04/19 07:35:37;;;;;;;3.70;3.50;;;14.30;35.80;;;;;;20808;6764;117128;-72
2022/04/19 07:38:12;;;;;;;4.20;3.80;;;14.50;35.90;;;;;;20543;6779;278443;-71
2022/04/19 07:40:49;;;;;;;4.20;3.90;;;14.90;34.20;;;;;;20647;6779;117532;-74
2022/04/19 07:43:25;;;;;;;3.97;3.57;;;15.20;34.30;;;;;;20544;6779;277708;-71
2022/04/19 07:46:00;;;;;;;4.55;3.90;;;15.70;32.90;;;;;;20540;6781;305331;-71
2022/04/19 07:48:39;;;;;;;3.97;3.67;;;16.20;32.60;;;;;;20594;6764;277108;-71
2022/04/19 07:51:12;;;;;;;4.07;3.77;;;17.00;32.30;;;;;;20418;6779;309513;-71
2022/04/19 07:53:48;;;;;;;3.83;3.53;;;17.00;31.80;;;;;;20615;6757;305674;-71
2022/04/19 07:56:23;;;;;;;3.93;3.47;;;17.30;31.90;;;;;;20749;6784;117117;-71
2022/04/19 07:58:59;;;;;;;3.60;3.30;;;17.20;32.00;;;;;;20818;6769;117474;-71
2022/04/19 08:01:34;;;;;;;4.07;3.67;;;17.10;32.40;;;;;;20404;6769;293415;-71
2022/04/19 08:04:10;;;;;;;4.17;3.87;;;17.30;30.40;;;;;;20561;6775;278059;-71
2022/04/19 08:06:46;;;;;;;3.83;3.58;;;17.70;30.60;;;;;;20575;6771;278494;-72
2022/04/19 08:09:21;;;;;;;3.60;3.30;;;18.00;29.30;;;;;;20767;6770;117056;-71
2022/04/19 08:11:57;;;;;;;3.37;3.17;;;18.10;29.70;;;;;;20621;6771;121731;-71
2022/04/19 08:14:32;;;;;;;3.43;3.13;;;17.80;29.90;;;;;;20804;6764;118082;-71
2022/04/19 08:17:11;;;;;;;4.13;3.73;;;17.60;30.10;;;;;;20570;6766;278250;-72
2022/04/19 08:19:43;;;;;;;3.80;3.55;;;17.70;29.30;;;;;;20578;6766;326384;-71
2022/04/19 08:22:19;;;;;;;3.60;3.40;;;18.00;29.30;;;;;;20851;6749;117439;-71
2022/04/19 08:24:55;;;;;;;4.20;3.80;;;17.90;29.30;;;;;;20599;6751;336365;-72
2022/04/19 08:27:30;;;;;;;3.57;3.37;;;18.00;28.40;;;;;;20785;6771;117801;-72
2022/04/19 08:30:08;;;;;;;3.53;3.23;;;18.00;28.90;;;;;;20779;6764;119019;-72
2022/04/19 08:32:42;;;;;;;4.03;3.72;;;17.70;29.00;;;;;;20589;6766;276790;-72
2022/04/19 08:35:18;;;;;;;3.65;3.45;;;17.90;28.50;;;;;;20577;6764;306800;-72
2022/04/19 08:37:53;;;;;;;3.80;3.50;;;18.20;27.50;;;;;;20620;6757;278442;-72
2022/04/19 08:40:28;;;;;;;4.07;3.78;;;18.50;27.80;;;;;;20464;6784;307936;-72
2022/04/19 08:43:04;;;;;;;3.50;3.30;;;18.80;28.60;;;;;;20788;6764;117214;-72
2022/04/19 08:45:39;;;;;;;4.00;3.77;;;18.80;28.60;;;;;;20577;6771;306998;-72
2022/04/19 08:48:15;;;;;;;4.00;3.70;;;18.80;27.30;;;;;;20558;6775;293932;-72
2022/04/19 08:50:51;;;;;;;3.60;3.40;;;19.10;27.60;;;;;;20615;6784;124416;-73
2022/04/19 08:59:18;;;;;;;3.70;3.50;;;19.40;27.70;;;;;;20735;6781;117568;-72
2022/04/19 09:01:53;;;;;;;3.90;3.70;;;19.20;28.10;;;;;;20589;6779;118061;-72
2022/04/19 09:04:30;;;;;;;4.35;3.95;;;19.20;28.40;;;;;;20525;6784;293875;-72
2022/04/19 09:07:05;;;;;;;4.10;3.57;;;19.50;27.40;;;;;;20748;6775;117735;-72
2022/04/19 09:09:41;;;;;;;4.07;3.77;;;19.70;27.70;;;;;;20753;6779;117117;-72
2022/04/19 09:12:16;;;;;;;3.87;3.57;;;19.70;27.90;;;;;;20763;6778;117004;-72
2022/04/19 09:14:58;;;;;;;4.40;4.10;;;19.60;28.30;;;;;;20505;6778;307961;-72
2022/04/19 09:17:33;;;;;;;5.17;4.13;;;20.00;27.30;;;;;;20774;6775;117221;-72
2022/04/19 09:20:12;;;;;;;4.40;4.00;;;20.10;27.30;;;;;;20718;6779;117069;-72
2022/04/19 09:22:51;;;;;;;4.40;4.00;;;20.10;27.30;;;;;;20627;6754;306853;-75
2022/04/19 09:25:27;;;;;;;4.10;3.80;;;20.40;26.80;;;;;;20791;6769;117666;-72
2022/04/19 09:28:04;;;;;;;4.47;4.10;;;20.60;27.10;;;;;;20791;6769;117607;-72
2022/04/19 09:30:39;;;;;;;4.77;4.43;;;20.50;27.10;;;;;;20666;6794;117028;-72
2022/04/19 09:33:18;;;;;;;5.20;4.77;;;20.50;27.10;;;;;;20565;6766;310525;-72
2022/04/19 09:35:56;;;;;;;4.80;4.47;;;20.70;26.80;;;;;;20844;6751;117139;-72
2022/04/19 09:38:31;;;;;;;5.00;4.60;;;20.80;26.70;;;;;;20568;6771;304335;-72
2022/04/19 09:41:10;;;;;;;4.50;4.20;;;21.10;26.00;;;;;;20674;6766;117530;-72
2022/04/19 09:43:46;;;;;;;4.67;4.37;;;21.20;26.50;;;;;;20632;6751;306611;-72
2022/04/19 09:46:21;;;;;;;4.60;4.12;;;21.40;26.00;;;;;;20551;6822;305830;-72
2022/04/19 09:48:57;;;;;;;4.47;4.00;;;21.80;25.20;;;;;;20779;6766;117491;-73
2022/04/19 09:51:32;;;;;;;4.30;3.90;;;21.80;25.50;;;;;;20699;6766;117956;-72
2022/04/19 09:54:09;;;;;;;4.30;4.10;;;21.80;25.30;;;;;;20641;6751;277162;-72
2022/04/19 09:56:44;;;;;;;4.60;4.30;;;21.70;25.30;;;;;;20556;6771;311633;-72
2022/04/19 09:59:24;;;;;;;4.53;4.23;;;22.00;24.80;;;;;;20553;6771;307069;-72
2022/04/19 10:10:42;;;;;;;4.10;3.70;;;23.00;25.00;;;;;;20469;6786;299000;-71
2022/04/19 10:13:17;;;;;;;3.95;3.70;;;23.10;23.60;;;;;;20543;6781;335743;-72
2022/04/19 10:15:53;;;;;;;4.30;4.00;;;23.10;23.10;;;;;;20542;6781;280326;-71
2022/04/19 10:18:29;;;;;;;4.30;4.00;;;23.20;23.70;;;;;;20749;6779;116715;-72
2022/04/19 10:21:04;;;;;;;3.87;3.57;;;22.90;23.70;;;;;;20461;6766;302938;-72
2022/04/19 10:23:40;;;;;;;3.70;3.50;;;22.80;24.70;;;;;;20491;6794;308197;-72
2022/04/19 10:26:15;;;;;;;4.37;3.97;;;23.00;23.40;;;;;;20549;6775;307192;-72
2022/04/19 10:28:51;;;;;;;4.40;3.72;;;23.20;22.90;;;;;;20551;6769;307073;-72
2022/04/19 10:31:31;;;;;;;4.17;3.77;;;23.30;22.60;;;;;;20603;6784;117749;-72
2022/04/19 10:34:06;;;;;;;3.63;3.43;;;23.00;23.70;;;;;;20621;6754;280241;-71
2022/04/19 10:36:43;;;;;;;4.37;3.97;;;23.00;23.70;;;;;;20570;6764;311095;-72
2022/04/19 10:39:18;;;;;;;4.17;3.87;;;23.10;23.20;;;;;;20829;6764;117187;-72
2022/04/19 10:41:57;;;;;;;4.90;4.40;;;23.10;23.60;;;;;;20379;6779;308942;-72
2022/04/19 10:44:43;;;;;;;4.27;3.97;;;23.00;22.30;;;;;;20568;6766;307139;-72
2022/04/19 10:47:17;;;;;;;4.10;3.80;;;23.10;23.50;;;;;;20572;6779;306320;-73
2022/04/19 10:50:07;;;;;;;4.30;3.43;;;23.00;23.10;;;;;;20713;6786;117413;-70
2022/04/19 10:52:43;;;;;;;4.20;3.80;;;23.00;23.20;;;;;;20531;6784;282139;-70
2022/04/19 10:55:22;;;;;;;4.10;3.80;;;23.00;23.20;;;;;;20576;6764;315502;-70
2022/04/19 10:58:21;;;;;;;4.07;3.67;;;23.10;22.40;;;;;;20797;6766;116957;-70
2022/04/19 11:00:56;;;;;;;4.30;3.90;;;22.90;22.70;;;;;;20487;6764;278763;-70
2022/04/19 11:03:39;;;;;;;3.80;3.50;;;23.00;22.30;;;;;;20590;6764;307067;-71
2022/04/19 11:06:31;;;;;;;4.00;3.70;;;23.00;22.30;;;;;;20572;6769;306165;-71
2022/04/19 11:09:05;;;;;;;3.63;3.40;;;23.10;22.60;;;;;;20440;6835;280352;-72
2022/04/19 11:11:44;;;;;;;4.03;3.53;;;23.20;22.90;;;;;;20476;6766;337483;-71
2022/04/19 11:14:22;;;;;;;3.80;3.50;;;23.20;22.20;;;;;;20758;6779;117766;-72
2022/04/19 11:17:17;;;;;;;3.53;3.33;;;23.00;22.60;;;;;;20778;6766;146529;-72
2022/04/19 11:20:04;;;;;;;4.23;3.83;;;22.40;22.70;;;;;;20735;6779;119580;-71
2022/04/19 11:22:43;;;;;;;4.00;3.70;;;22.40;22.60;;;;;;20583;6766;304655;-71
2022/04/19 11:25:35;;;;;;;3.70;3.40;;;22.30;22.80;;;;;;20772;6766;117117;-71
2022/04/19 11:28:10;;;;;;;3.55;3.35;;;22.20;23.00;;;;;;20587;6766;306954;-72
2022/04/19 11:30:46;;;;;;;3.77;3.50;;;22.30;23.40;;;;;;20513;6771;295343;-71
2022/04/19 11:33:24;;;;;;;4.57;3.90;;;22.60;22.70;;;;;;20355;6834;305815;-70
2022/04/19 11:36:18;;;;;;;3.20;3.00;;;22.70;22.20;;;;;;20806;6766;117249;-71
2022/04/19 11:38:52;;;;;;;4.27;3.87;;;22.60;22.80;;;;;;20567;6765;276950;-72
2022/04/19 11:46:58;;;;;;;4.27;3.87;;;22.60;22.30;;;;;;20721;6784;117614;-72
2022/04/19 11:49:34;;;;;;;4.57;4.20;;;22.30;22.30;;;;;;20540;6781;309535;-71
2022/04/19 11:52:09;;;;;;;4.00;3.60;;;22.30;23.10;;;;;;20627;6822;118236;-71
2022/04/19 11:54:45;;;;;;;4.10;3.80;;;22.30;23.10;;;;;;20728;6786;118062;-71
2022/04/19 11:57:20;;;;;;;4.00;3.70;;;22.00;22.90;;;;;;20755;6781;117720;-72
2022/04/19 11:59:56;;;;;;;3.90;3.70;;;21.70;22.70;;;;;;20616;6751;276880;-71
2022/04/19 12:02:33;;;;;;;4.23;3.93;;;21.80;23.20;;;;;;20631;6751;310605;-71
2022/04/19 12:05:07;;;;;;;4.30;3.90;;;22.10;23.20;;;;;;20517;6781;306830;-71
2022/04/19 12:07:44;;;;;;;4.40;4.10;;;22.30;22.00;;;;;;20540;6781;277056;-71
2022/04/19 12:10:19;;;;;;;4.00;3.70;;;22.30;22.00;;;;;;20692;6781;117499;-71
2022/04/19 12:12:55;;;;;;;3.70;3.40;;;21.70;22.40;;;;;;20722;6786;117280;-71
2022/04/19 12:15:41;;;;;;;3.90;3.70;;;21.60;22.40;;;;;;20621;6756;302694;-71
2022/04/19 12:18:33;;;;;;;4.37;4.07;;;21.70;22.20;;;;;;20512;6790;307522;-71
2022/04/19 12:21:09;;;;;;;4.50;4.20;;;21.80;22.00;;;;;;20583;6784;117629;-71
2022/04/19 12:23:44;;;;;;;4.37;4.07;;;21.60;22.00;;;;;;20543;6781;277280;-72
2022/04/19 12:26:22;;;;;;;4.12;3.83;;;21.60;22.70;;;;;;20579;6764;306137;-71
2022/04/19 12:29:07;;;;;;;3.83;3.53;;;21.70;22.00;;;;;;20829;6751;117491;-72
2022/04/19 12:31:44;;;;;;;5.03;4.63;;;21.60;22.30;;;;;;20486;6749;308202;-71
2022/04/19 12:34:19;;;;;;;4.28;3.97;;;21.70;21.70;;;;;;20596;6764;306786;-72
2022/04/19 12:36:54;;;;;;;3.70;3.50;;;21.70;21.70;;;;;;20818;6751;117027;-72
2022/04/19 12:39:30;;;;;;;3.37;3.17;;;21.60;21.80;;;;;;20746;6779;117453;-71
2022/04/19 12:42:11;;;;;;;5.33;3.67;;;21.30;21.70;;;;;;20668;6807;118345;-71
2022/04/19 12:44:48;;;;;;;4.67;3.90;;;21.00;22.00;;;;;;20590;6766;277996;-71
2022/04/19 12:47:24;;;;;;;3.90;3.70;;;21.10;21.50;;;;;;20522;6779;307993;-71
2022/04/19 12:50:11;;;;;;;3.37;3.17;;;21.30;22.30;;;;;;20825;6751;117210;-71
2022/04/19 12:52:47;;;;;;;4.07;3.77;;;21.30;22.30;;;;;;20754;6779;117051;-71
2022/04/19 12:55:27;;;;;;;3.60;3.40;;;21.10;22.50;;;;;;20524;6782;277683;-71
2022/04/19 12:58:10;;;;;;;3.87;3.57;;;21.20;22.90;;;;;;20531;6784;307163;-72
2022/04/19 13:00:46;;;;;;;4.10;3.80;;;21.50;23.10;;;;;;20726;6764;117123;-71
2022/04/19 13:03:21;;;;;;;3.80;3.60;;;21.50;22.90;;;;;;20715;6786;117653;-72
2022/04/19 13:14:47;;;;;;;3.90;3.70;;;21.10;23.10;;;;;;20589;6764;306740;-71
2022/04/19 13:17:22;;;;;;;3.63;3.40;;;21.30;21.50;;;;;;20739;6779;117202;-72
2022/04/19 13:19:58;;;;;;;3.47;3.20;;;21.20;21.90;;;;;;20677;6794;117246;-72
2022/04/19 13:22:33;;;;;;;3.77;3.47;;;20.90;22.40;;;;;;20747;6781;117276;-71
2022/04/19 13:25:09;;;;;;;3.70;3.50;;;20.70;22.50;;;;;;20780;6766;117026;-72
2022/04/19 13:27:44;;;;;;;3.90;3.60;;;20.60;22.50;;;;;;20586;6766;276913;-72
2022/04/19 13:30:21;;;;;;;4.32;4.03;;;20.70;22.40;;;;;;20534;6766;313246;-71
2022/04/19 13:32:55;;;;;;;3.80;3.50;;;21.00;21.70;;;;;;20832;6751;117080;-72
2022/04/19 13:35:31;;;;;;;4.00;3.80;;;21.00;22.20;;;;;;20795;6766;117292;-72
2022/04/19 13:38:23;;;;;;;3.90;3.63;;;20.80;22.60;;;;;;20586;6766;306680;-72
2022/04/19 13:40:59;;;;;;;7.20;3.60;;;21.20;22.00;;;;;;20500;6766;278588;-71
2022/04/19 13:43:37;;;;;;;4.07;3.78;;;21.40;22.40;;;;;;20596;6766;307066;-71
2022/04/19 13:46:11;;;;;;;6.35;5.87;;;21.40;22.20;;;;;;20543;6779;335926;-71
2022/04/19 13:48:47;;;;;;;4.87;4.20;;;21.60;21.10;;;;;;20757;6779;117713;-71
2022/04/19 13:51:22;;;;;;;4.63;4.33;;;21.30;21.30;;;;;;20449;6764;319461;-71
2022/04/19 13:53:58;;;;;;;4.60;4.30;;;21.30;21.30;;;;;;20629;6751;335650;-71
2022/04/19 13:56:33;;;;;;;4.70;4.30;;;21.40;21.70;;;;;;20577;6769;277586;-71
2022/04/19 13:59:09;;;;;;;4.43;3.90;;;21.50;21.20;;;;;;20572;6764;307397;-71
2022/04/19 14:01:48;;;;;;;4.07;3.80;;;21.50;21.60;;;;;;20695;6751;117172;-71
2022/04/19 14:04:20;;;;;;;7.20;3.90;;;21.20;21.60;;;;;;20804;6764;120919;-71
2022/04/19 14:06:57;;;;;;;4.07;3.87;;;20.50;21.80;;;;;;20735;6779;117649;-71
2022/04/19 14:09:32;;;;;;;4.70;4.30;;;20.50;22.00;;;;;;20616;6757;300613;-71
2022/04/19 14:12:08;;;;;;;4.10;3.80;;;20.60;22.00;;;;;;20570;6840;117532;-71
2022/04/19 14:14:43;;;;;;;4.77;3.73;;;20.50;22.10;;;;;;20724;6790;117521;-71
2022/04/19 14:17:19;;;;;;;4.77;4.47;;;20.30;22.50;;;;;;20797;6769;117283;-71